EGV weather

Eagle River Union Airport
Eagle River, Wisconsin, United States

Public forecast

Using degrees Fahrenheit for public forecast. Weather courtesy of forecast.io.

Current aviation weather report (METAR) for Eagle River Union Airport

Retrieved 2020/02/23 17:35 UTC (10 minutes ago):

KEGV 231735Z AUTO 24022KT 10SM CLR 06/M05 A2967 RMK AO2 T00601047

Closest aviation forecast (TAF) to Eagle River Union Airport

Closest forecast is Rhinelander Oneida County Airport, 19.9 nm (36.9 km) SSW. Retrieved 2020/02/23 12:33 UTC (5 hours ago):

TAF KRHI 231130Z 2312/2412 23008G15KT P6SM BKN008 TEMPO 2312/2314 4SM BR FM231500 25011G18KT P6SM SCT250 WS016/29035KT FM240100 28007KT P6SM BKN250 FM240800 30005KT P6SM BKN012